Time;durP1;ratioP1;P1;durP2;ratioP2;P2;SDS_P1;SDS_P2;PMS_P1;PMS_P2;Temp;Humidity;BMP_temperature;BMP_pressure;BME280_temperature;BME280_humidity;BME280_pressure;Samples;Min_cycle;Max_cycle;Signal;HPM_P1;HPM_P2
2022/02/26 00:01:13;;;;;;;9.57;1.90;;;3.80;99.90;;;;;;4162950;28;20485;-80
2022/02/26 00:03:16;;;;;;;5.90;1.67;;;3.80;99.90;;;;;;4169791;28;20469;-80
2022/02/26 00:05:18;;;;;;;10.43;1.97;;;3.80;99.90;;;;;;4175307;28;20446;-80
2022/02/26 00:07:20;;;;;;;7.97;1.70;;;3.70;99.90;;;;;;4169529;28;20472;-80
2022/02/26 00:09:21;;;;;;;13.77;2.57;;;3.70;99.90;;;;;;4168539;28;20468;-80
2022/02/26 00:11:23;;;;;;;9.80;1.80;;;3.70;99.90;;;;;;4169533;28;20484;-80
2022/02/26 00:13:26;;;;;;;9.17;2.03;;;3.70;99.90;;;;;;4168599;28;20508;-80
2022/02/26 00:15:27;;;;;;;11.07;2.07;;;4.00;99.90;;;;;;4163847;28;20528;-80
2022/02/26 00:17:29;;;;;;;7.03;1.73;;;3.60;99.90;;;;;;4170329;28;20460;-80
2022/02/26 00:19:33;;;;;;;12.97;1.90;;;3.70;99.90;;;;;;4166364;28;20460;-80
2022/02/26 00:21:34;;;;;;;11.20;2.37;;;3.60;99.90;;;;;;4176994;28;20853;-80
2022/02/26 00:23:36;;;;;;;12.70;2.20;;;3.60;99.90;;;;;;4166082;28;20458;-80
2022/02/26 00:25:38;;;;;;;14.13;2.33;;;3.60;99.90;;;;;;4147260;28;20461;-81
2022/02/26 00:27:40;;;;;;;9.33;1.90;;;3.60;99.90;;;;;;4159850;28;20469;-80
2022/02/26 00:29:41;;;;;;;10.03;2.17;;;3.60;99.90;;;;;;4177809;28;20461;-79
2022/02/26 00:31:46;;;;;;;7.47;1.83;;;3.60;99.90;;;;;;4177244;28;20474;-80
2022/02/26 00:33:48;;;;;;;11.10;2.03;;;3.70;99.90;;;;;;4166169;28;20461;-80
2022/02/26 00:35:52;;;;;;;10.13;2.17;;;3.60;99.90;;;;;;4154061;28;20506;-80
2022/02/26 00:37:54;;;;;;;9.53;2.17;;;3.60;99.90;;;;;;4159991;28;20466;-80
2022/02/26 00:39:56;;;;;;;7.20;1.77;;;3.60;99.90;;;;;;4171990;28;20473;-80
2022/02/26 00:42:01;;;;;;;12.43;2.30;;;3.60;99.90;;;;;;4167642;28;20453;-78
2022/02/26 00:44:04;;;;;;;12.20;2.23;;;3.60;99.90;;;;;;4148774;28;20485;-79
2022/02/26 00:46:07;;;;;;;11.13;2.10;;;3.60;99.90;;;;;;4151422;28;20472;-78
2022/02/26 00:48:11;;;;;;;10.33;1.67;;;3.60;99.90;;;;;;4168929;28;20466;-78
2022/02/26 00:50:12;;;;;;;8.20;1.90;;;3.60;99.90;;;;;;4166333;28;20494;-80
2022/02/26 00:52:16;;;;;;;9.40;1.90;;;3.60;99.90;;;;;;4164903;28;20833;-80
2022/02/26 00:54:18;;;;;;;8.37;1.70;;;3.60;99.90;;;;;;4173690;28;20207;-79
2022/02/26 00:56:20;;;;;;;8.40;1.67;;;3.60;99.90;;;;;;4167804;28;20496;-80
2022/02/26 00:58:22;;;;;;;9.07;1.83;;;3.60;99.90;;;;;;4168139;28;20457;-81
2022/02/26 01:00:24;;;;;;;13.90;1.93;;;3.50;99.90;;;;;;4167140;28;20676;-81
2022/02/26 01:02:26;;;;;;;11.93;2.00;;;3.50;99.90;;;;;;4157178;28;20486;-80
2022/02/26 01:04:27;;;;;;;12.13;2.30;;;3.50;99.90;;;;;;4151203;28;20470;-81
2022/02/26 01:06:30;;;;;;;6.17;1.90;;;3.50;99.90;;;;;;4165687;28;21228;-81
2022/02/26 01:08:33;;;;;;;13.93;1.80;;;3.50;99.90;;;;;;4171640;28;20474;-80
2022/02/26 01:10:39;;;;;;;9.37;1.73;;;3.50;99.90;;;;;;4162062;28;20501;-81
2022/02/26 01:12:41;;;;;;;11.70;2.17;;;3.50;99.90;;;;;;4164546;28;20458;-80
2022/02/26 01:14:45;;;;;;;8.20;1.40;;;3.50;99.90;;;;;;4167316;28;20452;-80
2022/02/26 01:16:48;;;;;;;6.67;1.70;;;3.50;99.90;;;;;;4164859;28;20469;-80
2022/02/26 01:18:49;;;;;;;9.97;1.50;;;3.50;99.90;;;;;;4166545;28;20985;-81
2022/02/26 01:20:51;;;;;;;10.13;1.40;;;3.50;99.90;;;;;;4164228;28;20539;-78
2022/02/26 01:22:53;;;;;;;9.33;2.47;;;3.50;99.90;;;;;;4164020;28;20458;-78
2022/02/26 01:24:56;;;;;;;12.00;2.43;;;3.70;99.90;;;;;;4156939;28;20528;-78
2022/02/26 01:26:58;;;;;;;9.53;1.70;;;3.50;99.90;;;;;;4153228;28;20832;-78
2022/02/26 01:29:00;;;;;;;7.60;1.93;;;3.50;99.90;;;;;;4162818;28;20685;-78
2022/02/26 01:31:02;;;;;;;9.60;2.47;;;3.50;99.90;;;;;;4162264;28;20585;-78
2022/02/26 01:33:04;;;;;;;11.43;1.90;;;3.50;99.90;;;;;;4172992;28;20901;-76
2022/02/26 01:35:06;;;;;;;8.40;1.60;;;3.50;99.90;;;;;;4174456;28;20930;-77
2022/02/26 01:37:08;;;;;;;12.93;2.10;;;3.50;99.90;;;;;;4146518;28;20458;-76
2022/02/26 01:39:11;;;;;;;9.93;2.00;;;3.50;99.90;;;;;;4146650;28;20954;-77
2022/02/26 01:41:14;;;;;;;15.30;2.30;;;3.40;99.90;;;;;;4161966;28;21038;-76
2022/02/26 01:43:16;;;;;;;11.10;1.80;;;3.50;99.90;;;;;;4164807;28;20956;-76
2022/02/26 01:45:19;;;;;;;9.20;1.30;;;3.40;99.90;;;;;;4163449;28;20466;-76
2022/02/26 01:47:22;;;;;;;16.47;2.43;;;3.40;99.90;;;;;;4163789;28;20462;-78
2022/02/26 01:49:23;;;;;;;15.10;1.90;;;3.40;99.90;;;;;;4159865;28;20561;-77
2022/02/26 01:51:27;;;;;;;13.10;2.10;;;3.40;99.90;;;;;;4163273;28;20543;-76
2022/02/26 01:53:29;;;;;;;8.23;1.83;;;3.30;99.90;;;;;;4163312;28;20472;-76
2022/02/26 01:55:32;;;;;;;9.37;1.80;;;3.40;99.90;;;;;;4165781;28;20470;-76
2022/02/26 01:57:36;;;;;;;8.63;1.70;;;3.40;99.90;;;;;;4163399;28;21021;-76
2022/02/26 01:59:38;;;;;;;8.97;1.60;;;3.40;99.90;;;;;;4163826;28;20458;-76
2022/02/26 02:01:40;;;;;;;15.10;2.00;;;3.40;99.90;;;;;;4163137;28;20541;-76
2022/02/26 02:03:42;;;;;;;11.67;1.70;;;3.30;99.90;;;;;;4162990;28;20562;-76
2022/02/26 02:05:44;;;;;;;11.47;1.77;;;3.30;99.90;;;;;;4158092;28;20831;-76
2022/02/26 02:07:46;;;;;;;8.67;1.47;;;3.30;99.90;;;;;;4146582;28;20550;-77
2022/02/26 02:09:48;;;;;;;8.83;1.50;;;3.40;99.90;;;;;;4169230;28;20469;-78
2022/02/26 02:11:50;;;;;;;8.17;1.70;;;3.20;99.90;;;;;;4167449;28;20501;-78
2022/02/26 02:13:53;;;;;;;11.60;1.90;;;3.30;99.90;;;;;;4154652;28;20491;-76
2022/02/26 02:15:55;;;;;;;9.80;2.20;;;3.30;99.90;;;;;;4148763;28;20528;-76
2022/02/26 02:17:57;;;;;;;5.47;1.63;;;3.30;99.90;;;;;;4149339;28;20537;-76
2022/02/26 02:19:59;;;;;;;14.07;2.10;;;3.30;99.90;;;;;;4149619;28;20478;-76
2022/02/26 02:22:05;;;;;;;13.00;1.80;;;3.20;99.90;;;;;;4165877;28;20465;-76
2022/02/26 02:24:07;;;;;;;14.53;1.70;;;3.20;99.90;;;;;;4164815;28;20478;-78
2022/02/26 02:26:09;;;;;;;8.67;1.67;;;3.20;99.90;;;;;;4160357;28;21098;-76
2022/02/26 02:28:11;;;;;;;9.67;2.03;;;3.20;99.90;;;;;;4153393;28;20548;-78
2022/02/26 02:30:13;;;;;;;8.97;1.50;;;3.20;99.90;;;;;;4174694;28;20485;-77
2022/02/26 02:32:14;;;;;;;5.60;1.50;;;3.20;99.90;;;;;;4168235;28;20464;-78
2022/02/26 02:34:16;;;;;;;11.77;1.80;;;3.20;99.90;;;;;;4166029;28;20473;-76
2022/02/26 02:36:18;;;;;;;18.17;1.63;;;3.10;99.90;;;;;;4160114;28;20456;-76
2022/02/26 02:38:21;;;;;;;7.07;1.60;;;3.10;99.90;;;;;;4166486;28;20461;-76
2022/02/26 02:40:23;;;;;;;10.43;1.90;;;3.10;99.90;;;;;;4166665;28;20493;-78
2022/02/26 02:42:25;;;;;;;15.13;2.10;;;3.10;99.90;;;;;;4161812;28;20880;-76
2022/02/26 02:44:26;;;;;;;5.90;1.73;;;3.10;99.90;;;;;;4177378;28;20475;-76
2022/02/26 02:46:28;;;;;;;10.63;2.00;;;3.10;99.90;;;;;;4168878;28;20453;-76
2022/02/26 02:48:30;;;;;;;6.80;2.00;;;3.10;99.90;;;;;;4164760;28;20457;-76
2022/02/26 02:50:32;;;;;;;11.37;1.83;;;3.10;99.90;;;;;;4164964;28;20540;-76
2022/02/26 02:52:34;;;;;;;10.10;1.73;;;3.10;99.90;;;;;;4157786;28;20472;-76
2022/02/26 02:54:37;;;;;;;10.07;1.83;;;3.10;99.90;;;;;;4166455;28;20466;-76
2022/02/26 02:56:39;;;;;;;8.83;1.87;;;3.00;99.90;;;;;;4165754;28;20818;-78
2022/02/26 02:58:41;;;;;;;8.13;2.10;;;3.10;99.90;;;;;;4163638;28;20880;-76
2022/02/26 03:00:43;;;;;;;8.40;1.97;;;3.10;99.90;;;;;;4161603;28;20493;-76
2022/02/26 03:02:44;;;;;;;9.50;1.50;;;3.10;99.90;;;;;;4165256;28;20466;-77
2022/02/26 03:04:46;;;;;;;13.10;1.70;;;3.10;99.90;;;;;;4163907;28;20462;-77
2022/02/26 03:06:48;;;;;;;8.17;1.60;;;3.10;99.90;;;;;;4164741;28;20954;-76
2022/02/26 03:08:50;;;;;;;13.37;2.40;;;3.40;99.90;;;;;;4165919;28;20846;-78
2022/02/26 03:10:55;;;;;;;10.70;2.43;;;3.30;99.90;;;;;;4157201;28;20482;-78
2022/02/26 03:12:56;;;;;;;17.40;2.50;;;3.10;99.90;;;;;;4164357;28;20563;-76
2022/02/26 03:14:58;;;;;;;8.43;1.67;;;3.10;99.90;;;;;;4165288;28;20604;-76
2022/02/26 03:17:00;;;;;;;16.47;1.90;;;3.10;99.90;;;;;;4168875;28;20960;-78
2022/02/26 03:19:02;;;;;;;12.13;2.17;;;3.10;99.90;;;;;;4158235;28;20475;-78
2022/02/26 03:21:04;;;;;;;11.37;1.97;;;3.10;99.90;;;;;;4164982;28;20522;-76
2022/02/26 03:23:06;;;;;;;9.93;1.60;;;3.10;99.90;;;;;;4163790;28;20829;-77
2022/02/26 03:25:08;;;;;;;17.20;2.57;;;3.10;99.90;;;;;;4165042;28;20517;-76
2022/02/26 03:27:12;;;;;;;12.60;1.97;;;3.10;99.90;;;;;;4153624;28;20482;-77
2022/02/26 03:29:13;;;;;;;8.17;1.93;;;3.10;99.90;;;;;;4149098;28;20461;-76
2022/02/26 03:31:15;;;;;;;5.27;1.50;;;3.10;99.90;;;;;;4156274;28;20496;-76
2022/02/26 03:33:17;;;;;;;12.53;1.80;;;3.10;99.90;;;;;;4165471;28;20460;-77
2022/02/26 03:35:19;;;;;;;12.17;1.50;;;3.10;99.90;;;;;;4163668;28;21016;-77
2022/02/26 03:37:21;;;;;;;13.17;1.90;;;3.10;99.90;;;;;;4171225;28;20477;-76
2022/02/26 03:39:23;;;;;;;13.23;2.13;;;3.10;99.90;;;;;;4167892;28;20548;-76
2022/02/26 03:41:25;;;;;;;10.10;1.37;;;3.10;99.90;;;;;;4165101;28;20907;-76
2022/02/26 03:43:29;;;;;;;9.27;1.57;;;3.20;99.90;;;;;;4165362;28;20466;-78
2022/02/26 03:45:31;;;;;;;9.23;2.10;;;3.20;99.90;;;;;;4158751;28;20842;-78
2022/02/26 03:47:32;;;;;;;6.27;1.30;;;3.20;99.90;;;;;;4165289;28;20882;-76
2022/02/26 03:49:34;;;;;;;15.97;2.03;;;3.20;99.90;;;;;;4165109;28;20462;-76
2022/02/26 03:51:36;;;;;;;9.83;1.67;;;3.20;99.90;;;;;;4169663;28;20504;-76
2022/02/26 03:53:38;;;;;;;13.33;2.03;;;3.20;99.90;;;;;;4159470;28;20515;-76
2022/02/26 03:55:40;;;;;;;11.63;2.07;;;3.20;99.90;;;;;;4164848;28;21012;-76
2022/02/26 03:57:42;;;;;;;12.27;2.30;;;3.20;99.90;;;;;;4164137;28;20461;-76
2022/02/26 03:59:45;;;;;;;20.43;2.40;;;3.20;99.90;;;;;;4164032;28;20466;-77
2022/02/26 04:01:46;;;;;;;11.63;2.00;;;3.20;99.90;;;;;;4168447;28;20469;-76
2022/02/26 04:03:48;;;;;;;7.93;1.60;;;3.20;99.90;;;;;;4169258;28;20488;-76
2022/02/26 04:05:50;;;;;;;16.63;1.93;;;3.20;99.90;;;;;;4164569;28;20540;-76
2022/02/26 04:07:52;;;;;;;13.03;2.37;;;3.20;99.90;;;;;;4164694;28;20449;-76
2022/02/26 04:09:54;;;;;;;11.57;1.83;;;3.20;99.90;;;;;;4162207;28;20484;-76
2022/02/26 04:11:55;;;;;;;10.33;1.93;;;3.20;99.90;;;;;;4161758;28;20504;-76
2022/02/26 04:13:57;;;;;;;16.07;1.73;;;3.10;99.90;;;;;;4164429;28;20462;-78
2022/02/26 04:16:00;;;;;;;8.70;1.90;;;3.10;99.90;;;;;;4163971;28;20461;-76
2022/02/26 04:18:02;;;;;;;6.70;1.57;;;3.00;99.90;;;;;;4170920;28;20477;-76
2022/02/26 04:20:05;;;;;;;14.63;2.50;;;3.10;99.90;;;;;;4166648;28;20489;-77
2022/02/26 04:22:07;;;;;;;13.03;1.70;;;3.00;99.90;;;;;;4164444;28;20466;-77
2022/02/26 04:24:09;;;;;;;12.90;1.83;;;3.00;99.90;;;;;;4164167;28;20469;-77
2022/02/26 04:26:10;;;;;;;13.67;2.20;;;3.00;99.90;;;;;;4156110;28;20478;-78
2022/02/26 04:28:12;;;;;;;12.40;1.67;;;3.00;99.90;;;;;;4164563;28;20461;-77
2022/02/26 04:30:14;;;;;;;17.83;2.17;;;2.90;99.90;;;;;;4163347;28;20486;-78
2022/02/26 04:32:17;;;;;;;15.57;2.30;;;2.90;99.90;;;;;;4163180;28;20490;-78
2022/02/26 04:34:19;;;;;;;11.43;2.00;;;2.90;99.90;;;;;;4155999;28;20947;-77
2022/02/26 04:36:21;;;;;;;11.50;1.73;;;2.90;99.90;;;;;;4146605;28;20962;-77
2022/02/26 04:38:23;;;;;;;12.00;2.00;;;2.90;99.90;;;;;;4164828;28;20860;-78
2022/02/26 04:40:24;;;;;;;10.70;1.70;;;2.90;99.90;;;;;;4163866;28;20903;-77
2022/02/26 04:42:26;;;;;;;11.60;2.00;;;2.90;99.90;;;;;;4163351;28;20927;-78
2022/02/26 04:44:28;;;;;;;14.03;2.00;;;2.80;99.90;;;;;;4157242;28;20499;-79
2022/02/26 04:46:30;;;;;;;9.33;1.83;;;2.90;99.90;;;;;;4180741;28;20452;-77
2022/02/26 04:48:34;;;;;;;14.20;2.63;;;2.90;99.90;;;;;;4180146;28;20453;-79
2022/02/26 04:50:35;;;;;;;9.67;1.97;;;2.90;99.90;;;;;;4156982;28;20494;-77
2022/02/26 04:52:38;;;;;;;13.40;2.00;;;2.80;99.90;;;;;;4170674;28;20522;-77
2022/02/26 04:54:39;;;;;;;12.83;2.20;;;2.80;99.90;;;;;;4180211;28;20464;-77
2022/02/26 04:56:41;;;;;;;11.30;2.37;;;2.80;99.90;;;;;;4179883;28;20467;-77
2022/02/26 04:58:43;;;;;;;16.10;2.20;;;2.80;99.90;;;;;;4171417;28;20478;-78
2022/02/26 05:00:45;;;;;;;13.80;2.33;;;2.80;99.90;;;;;;4157535;28;20589;-79
2022/02/26 05:02:47;;;;;;;10.80;2.10;;;3.00;99.90;;;;;;4171654;28;20485;-78
2022/02/26 05:04:51;;;;;;;10.93;1.40;;;3.00;99.90;;;;;;4163976;28;20515;-79
2022/02/26 05:06:53;;;;;;;9.10;1.93;;;2.80;99.90;;;;;;4163988;28;20469;-79
2022/02/26 05:08:55;;;;;;;14.57;2.10;;;2.80;99.90;;;;;;4164132;28;20702;-79
2022/02/26 05:10:56;;;;;;;13.43;2.03;;;2.80;99.90;;;;;;4162327;28;20830;-78
2022/02/26 05:12:58;;;;;;;13.60;2.33;;;2.80;99.90;;;;;;4163627;28;20580;-78
2022/02/26 05:15:00;;;;;;;9.53;1.90;;;2.80;99.90;;;;;;4162470;28;20508;-78
2022/02/26 05:17:02;;;;;;;11.53;1.73;;;2.80;99.90;;;;;;4163738;28;20465;-79
2022/02/26 05:19:04;;;;;;;12.00;2.13;;;2.80;99.90;;;;;;4148441;28;20520;-79
2022/02/26 05:21:07;;;;;;;12.80;1.97;;;2.80;99.90;;;;;;4177013;28;20496;-77
2022/02/26 05:23:09;;;;;;;13.30;1.77;;;2.80;99.90;;;;;;4168311;28;20469;-78
2022/02/26 05:25:12;;;;;;;11.07;2.13;;;2.90;99.90;;;;;;4162388;28;20457;-77
2022/02/26 05:27:14;;;;;;;13.10;2.00;;;2.90;99.90;;;;;;4161366;28;20473;-77
2022/02/26 05:29:16;;;;;;;15.50;1.90;;;2.90;99.90;;;;;;4162284;28;20457;-77
2022/02/26 05:31:18;;;;;;;12.17;2.00;;;2.90;99.90;;;;;;4167133;28;20566;-77
2022/02/26 05:33:20;;;;;;;15.77;2.57;;;2.90;99.90;;;;;;4162771;28;20501;-76
2022/02/26 05:35:21;;;;;;;10.83;2.40;;;2.90;99.90;;;;;;4154968;28;20481;-77
2022/02/26 05:37:24;;;;;;;15.83;2.30;;;2.90;99.90;;;;;;4157959;28;20469;-77
2022/02/26 05:39:26;;;;;;;15.60;3.17;;;3.00;99.90;;;;;;4166568;28;20833;-77
2022/02/26 05:41:28;;;;;;;13.97;2.30;;;3.00;99.90;;;;;;4162822;28;20473;-77
2022/02/26 05:43:30;;;;;;;13.67;2.87;;;3.20;99.90;;;;;;4161614;28;20525;-78
2022/02/26 05:45:31;;;;;;;19.90;3.10;;;3.10;99.90;;;;;;4174799;28;20480;-77
2022/02/26 05:47:33;;;;;;;10.83;2.00;;;3.10;99.90;;;;;;4180022;28;20938;-77
2022/02/26 05:49:35;;;;;;;15.70;2.57;;;3.10;99.90;;;;;;4180875;28;20510;-77
2022/02/26 05:51:37;;;;;;;20.97;3.10;;;3.20;99.90;;;;;;4173741;28;20501;-77
2022/02/26 05:53:40;;;;;;;13.60;2.20;;;3.20;99.90;;;;;;4158943;28;20476;-77
2022/02/26 05:55:42;;;;;;;13.57;2.43;;;3.20;99.90;;;;;;4173754;28;20461;-77
2022/02/26 05:57:44;;;;;;;16.10;2.23;;;3.20;99.90;;;;;;4166595;28;20930;-76
2022/02/26 05:59:45;;;;;;;12.47;1.83;;;3.20;99.90;;;;;;4164448;28;20817;-77
2022/02/26 06:01:47;;;;;;;14.70;2.97;;;3.30;99.90;;;;;;4172862;28;20834;-78
2022/02/26 06:03:49;;;;;;;21.10;2.70;;;3.30;99.90;;;;;;4174301;28;20548;-78
2022/02/26 06:05:51;;;;;;;16.80;2.33;;;3.30;99.90;;;;;;4165833;28;20465;-77
2022/02/26 06:07:55;;;;;;;16.53;2.30;;;3.30;99.90;;;;;;4166402;28;20438;-77
2022/02/26 06:09:59;;;;;;;14.57;2.30;;;3.30;99.90;;;;;;4173056;28;20456;-78
2022/02/26 06:12:00;;;;;;;23.73;2.70;;;3.40;99.90;;;;;;4169819;28;20580;-79
2022/02/26 06:14:02;;;;;;;16.23;2.40;;;3.40;99.90;;;;;;4171267;28;20516;-79
2022/02/26 06:16:05;;;;;;;15.87;2.50;;;3.50;99.90;;;;;;4178871;28;20493;-79
2022/02/26 06:18:07;;;;;;;14.17;2.40;;;3.40;99.90;;;;;;4172342;28;20474;-79
2022/02/26 06:20:13;;;;;;;17.90;2.90;;;3.40;99.90;;;;;;4173475;28;20477;-78
2022/02/26 06:22:15;;;;;;;13.87;2.27;;;3.40;99.90;;;;;;4173370;28;20880;-79
2022/02/26 06:24:17;;;;;;;12.17;3.03;;;3.40;99.90;;;;;;4175759;28;20470;-78
2022/02/26 06:26:21;;;;;;;15.23;2.50;;;3.40;99.90;;;;;;4173726;28;20804;-78
2022/02/26 06:28:23;;;;;;;14.43;2.40;;;3.40;99.90;;;;;;4171898;28;20442;-78
2022/02/26 06:30:26;;;;;;;22.00;4.10;;;3.50;99.90;;;;;;4171811;28;20482;-78
2022/02/26 06:32:27;;;;;;;14.17;2.30;;;3.50;99.90;;;;;;4172865;28;20572;-78
2022/02/26 06:34:29;;;;;;;17.13;2.73;;;3.70;99.90;;;;;;4169208;28;20470;-78
2022/02/26 06:36:33;;;;;;;16.73;2.40;;;3.50;99.90;;;;;;4160727;28;21121;-78
2022/02/26 06:38:35;;;;;;;17.73;2.40;;;3.50;99.90;;;;;;4162205;28;20493;-79
2022/02/26 06:40:37;;;;;;;16.23;2.43;;;3.50;99.90;;;;;;4183345;28;20485;-79
2022/02/26 06:42:41;;;;;;;11.80;2.43;;;3.50;99.90;;;;;;4179871;28;20463;-79
2022/02/26 06:44:43;;;;;;;15.43;2.50;;;3.50;99.90;;;;;;4178322;28;20461;-80
2022/02/26 06:46:45;;;;;;;14.30;2.83;;;3.50;99.90;;;;;;4177202;28;20556;-78
2022/02/26 06:48:47;;;;;;;10.03;2.50;;;3.50;99.90;;;;;;4173106;28;20827;-78
2022/02/26 06:50:49;;;;;;;11.47;2.30;;;3.60;99.90;;;;;;4172945;28;20488;-79
2022/02/26 06:52:50;;;;;;;11.20;2.63;;;3.60;99.90;;;;;;4163957;28;20512;-79
2022/02/26 06:54:52;;;;;;;15.07;2.83;;;3.60;99.90;;;;;;4169080;28;20481;-78
2022/02/26 06:56:54;;;;;;;14.60;3.07;;;3.60;99.90;;;;;;4186438;28;20465;-79
2022/02/26 06:58:57;;;;;;;18.10;2.90;;;3.60;99.90;;;;;;4179795;28;20453;-79
2022/02/26 07:00:59;;;;;;;7.73;2.13;;;3.60;99.90;;;;;;4151774;28;20495;-79
2022/02/26 07:03:01;;;;;;;18.77;3.10;;;3.60;99.90;;;;;;4158324;28;20542;-79
2022/02/26 07:05:02;;;;;;;18.63;3.20;;;4.50;99.90;;;;;;4165204;28;20496;-77
2022/02/26 07:07:05;;;;;;;12.57;2.40;;;3.60;99.90;;;;;;4165513;28;20449;-79
2022/02/26 07:09:10;;;;;;;15.70;3.63;;;3.60;99.90;;;;;;4152225;28;20471;-77
2022/02/26 07:11:12;;;;;;;21.03;3.27;;;4.30;99.90;;;;;;4150659;28;20475;-80
2022/02/26 07:13:14;;;;;;;20.33;3.20;;;3.60;99.90;;;;;;4173270;28;20512;-76
2022/02/26 07:15:17;;;;;;;21.03;3.43;;;3.60;99.90;;;;;;4166841;28;20466;-77
2022/02/26 07:17:19;;;;;;;13.03;2.70;;;3.60;99.90;;;;;;4159370;28;20469;-76
2022/02/26 07:19:21;;;;;;;13.50;2.67;;;3.90;99.90;;;;;;4171896;28;20492;-77
2022/02/26 07:21:23;;;;;;;14.30;2.40;;;3.70;99.90;;;;;;4193850;22;20497;-82
2022/02/26 07:23:25;;;;;;;11.87;2.43;;;3.70;99.90;;;;;;4187467;28;20808;-82
2022/02/26 07:25:27;;;;;;;18.40;2.90;;;3.70;99.90;;;;;;4185170;28;20473;-82
2022/02/26 07:27:29;;;;;;;19.13;3.03;;;3.60;99.90;;;;;;4190190;28;20843;-82
2022/02/26 07:29:30;;;;;;;16.30;3.17;;;3.70;99.90;;;;;;4188008;28;20461;-82
2022/02/26 07:31:34;;;;;;;17.03;3.00;;;3.70;99.90;;;;;;4183967;28;20508;-82
2022/02/26 07:33:35;;;;;;;18.17;2.83;;;3.70;99.90;;;;;;4170530;28;20555;-82
2022/02/26 07:35:37;;;;;;;17.93;3.23;;;3.80;99.90;;;;;;4167572;28;20503;-82
2022/02/26 07:37:39;;;;;;;7.27;2.37;;;3.70;99.90;;;;;;4154346;28;20466;-82
2022/02/26 07:39:41;;;;;;;17.07;2.60;;;3.80;99.90;;;;;;4159719;28;20562;-82
2022/02/26 07:41:43;;;;;;;14.60;2.63;;;3.80;99.90;;;;;;4180010;28;20476;-82
2022/02/26 07:43:45;;;;;;;14.60;2.67;;;3.80;99.90;;;;;;4173190;28;20458;-82
2022/02/26 07:45:46;;;;;;;17.20;3.10;;;3.90;99.90;;;;;;4164091;28;20519;-82
2022/02/26 07:47:50;;;;;;;18.00;2.87;;;3.90;99.90;;;;;;4172705;28;20485;-82
2022/02/26 07:49:51;;;;;;;18.03;2.80;;;3.80;99.90;;;;;;4166080;28;20954;-84
2022/02/26 07:51:53;;;;;;;10.93;2.90;;;3.90;99.90;;;;;;4185991;28;20864;-82
2022/02/26 07:53:55;;;;;;;14.87;2.70;;;3.90;99.90;;;;;;4184632;28;20488;-82
2022/02/26 07:55:57;;;;;;;11.50;2.27;;;3.90;99.90;;;;;;4169404;28;20531;-82
2022/02/26 07:57:58;;;;;;;17.20;2.50;;;3.90;99.90;;;;;;4171823;28;20457;-82
2022/02/26 08:00:00;;;;;;;11.60;2.33;;;4.00;99.90;;;;;;4166158;28;20537;-82
2022/02/26 08:02:02;;;;;;;21.63;2.73;;;4.00;99.90;;;;;;4168807;28;20442;-82
2022/02/26 08:04:07;;;;;;;15.90;2.83;;;4.00;99.90;;;;;;4169280;28;20469;-82
2022/02/26 08:06:08;;;;;;;17.13;2.60;;;4.00;99.90;;;;;;4175149;28;20516;-81
2022/02/26 08:08:10;;;;;;;16.10;2.80;;;4.00;99.90;;;;;;4170860;28;20462;-82
2022/02/26 08:10:12;;;;;;;15.37;2.60;;;4.00;99.90;;;;;;4163260;28;20500;-82
2022/02/26 08:12:15;;;;;;;18.73;3.17;;;4.10;99.90;;;;;;4177294;28;20465;-82
2022/02/26 08:14:16;;;;;;;14.10;3.37;;;4.10;99.90;;;;;;4170687;28;20536;-82
2022/02/26 08:16:18;;;;;;;17.40;3.63;;;4.10;99.90;;;;;;4168911;28;20458;-82
2022/02/26 08:18:20;;;;;;;19.50;2.97;;;4.10;99.90;;;;;;4162977;28;20493;-81
2022/02/26 08:20:24;;;;;;;18.43;2.97;;;4.10;99.90;;;;;;4169045;28;20490;-82
2022/02/26 08:22:26;;;;;;;12.73;2.50;;;4.20;99.90;;;;;;4169008;28;20454;-81
2022/02/26 08:24:28;;;;;;;17.20;2.80;;;4.20;99.90;;;;;;4167209;28;20518;-81
2022/02/26 08:26:30;;;;;;;16.17;2.97;;;4.20;99.90;;;;;;4159881;28;20522;-82
2022/02/26 08:28:31;;;;;;;11.83;2.27;;;4.20;99.90;;;;;;4179056;28;20508;-82
2022/02/26 08:30:33;;;;;;;12.30;2.50;;;4.30;99.90;;;;;;4168741;28;20488;-82
2022/02/26 08:32:35;;;;;;;12.83;2.33;;;4.30;99.90;;;;;;4169194;28;20871;-82
2022/02/26 08:34:37;;;;;;;15.13;2.57;;;4.30;99.90;;;;;;4163892;28;20533;-82
2022/02/26 08:36:42;;;;;;;12.27;2.87;;;4.30;99.90;;;;;;4169035;28;22264;-81
2022/02/26 08:38:44;;;;;;;14.73;2.80;;;4.90;99.90;;;;;;4170504;28;20531;-82
2022/02/26 08:40:45;;;;;;;8.70;2.43;;;4.40;99.90;;;;;;4169493;28;21046;-82
2022/02/26 08:42:47;;;;;;;13.03;2.87;;;4.40;99.90;;;;;;4166023;28;20496;-82
2022/02/26 08:44:49;;;;;;;13.20;2.67;;;4.40;99.90;;;;;;4169798;28;20446;-81
2022/02/26 08:46:51;;;;;;;13.80;2.87;;;4.40;99.90;;;;;;4168503;28;20531;-82
2022/02/26 08:48:54;;;;;;;11.97;2.40;;;4.40;99.90;;;;;;4168950;28;20459;-82
2022/02/26 08:50:56;;;;;;;13.70;3.40;;;4.50;99.90;;;;;;4161474;28;20503;-81
2022/02/26 08:52:59;;;;;;;12.83;2.33;;;4.50;99.90;;;;;;4174160;28;20554;-82
2022/02/26 08:55:01;;;;;;;13.23;2.83;;;4.50;99.90;;;;;;4170394;28;20466;-82
2022/02/26 08:57:03;;;;;;;7.90;2.17;;;4.60;99.90;;;;;;4166706;28;20911;-82
2022/02/26 08:59:04;;;;;;;9.43;2.40;;;4.60;99.90;;;;;;4165340;28;20963;-82
2022/02/26 09:01:06;;;;;;;20.03;3.10;;;4.60;99.90;;;;;;4164362;28;20485;-82
2022/02/26 09:03:08;;;;;;;18.87;2.63;;;4.70;99.90;;;;;;4166706;28;20512;-82
2022/02/26 09:05:10;;;;;;;13.83;2.43;;;4.70;99.90;;;;;;4165892;28;20447;-82
2022/02/26 09:07:12;;;;;;;18.73;2.77;;;4.70;99.90;;;;;;4171912;28;20804;-82
2022/02/26 09:09:15;;;;;;;17.87;2.53;;;4.70;99.90;;;;;;4177213;28;20457;-82
2022/02/26 09:11:17;;;;;;;13.70;2.60;;;4.70;99.90;;;;;;4166293;28;20482;-82
2022/02/26 09:13:19;;;;;;;12.60;2.47;;;4.70;99.90;;;;;;4167551;28;20576;-82
2022/02/26 09:15:20;;;;;;;16.13;2.50;;;5.40;99.90;;;;;;4166645;28;20455;-82
2022/02/26 09:17:24;;;;;;;15.97;3.20;;;4.80;99.90;;;;;;4165792;28;20508;-82
2022/02/26 09:19:25;;;;;;;12.37;2.37;;;4.80;99.90;;;;;;4165197;28;20476;-82
2022/02/26 09:21:28;;;;;;;9.43;2.13;;;4.90;99.90;;;;;;4167731;28;20490;-82
2022/02/26 09:23:30;;;;;;;14.77;2.30;;;4.90;99.90;;;;;;4172559;28;20490;-82
2022/02/26 09:25:33;;;;;;;13.73;2.50;;;5.00;99.90;;;;;;4169601;28;20466;-81
2022/02/26 09:27:35;;;;;;;14.70;3.03;;;5.00;99.90;;;;;;4162716;28;20890;-82
2022/02/26 09:29:37;;;;;;;13.83;2.67;;;5.00;99.90;;;;;;4172872;28;20458;-82
2022/02/26 09:31:41;;;;;;;14.63;2.97;;;5.10;99.90;;;;;;4170270;28;20490;-82
2022/02/26 09:33:43;;;;;;;12.47;3.03;;;5.10;99.90;;;;;;4169350;28;20995;-83
2022/02/26 09:35:44;;;;;;;17.27;2.63;;;5.20;99.90;;;;;;4160621;28;20498;-82
2022/02/26 09:37:48;;;;;;;17.20;3.40;;;5.20;99.90;;;;;;4178411;28;20472;-82
2022/02/26 09:39:51;;;;;;;11.43;3.30;;;5.20;99.90;;;;;;4185654;28;20510;-82
2022/02/26 09:41:56;;;;;;;12.43;3.40;;;5.20;99.90;;;;;;4180819;28;20482;-83
2022/02/26 09:43:59;;;;;;;12.63;2.50;;;5.30;99.90;;;;;;4168061;28;20957;-83
2022/02/26 09:46:03;;;;;;;10.10;2.60;;;5.40;99.90;;;;;;4153596;28;20458;-82
2022/02/26 09:48:05;;;;;;;15.20;2.70;;;5.50;99.90;;;;;;4152584;28;20819;-82
2022/02/26 09:50:08;;;;;;;8.23;2.23;;;5.50;99.90;;;;;;4152668;28;20434;-82
2022/02/26 09:52:11;;;;;;;7.07;2.27;;;5.50;99.90;;;;;;4171870;28;20485;-82
2022/02/26 09:54:16;;;;;;;10.13;2.37;;;5.60;99.90;;;;;;4172452;28;20490;-81
2022/02/26 09:56:18;;;;;;;9.93;2.20;;;5.60;99.90;;;;;;4176751;28;20482;-81
2022/02/26 09:58:22;;;;;;;8.13;1.93;;;5.60;99.90;;;;;;4179219;28;20468;-82
2022/02/26 10:00:23;;;;;;;9.07;2.40;;;5.70;99.90;;;;;;4171561;28;20483;-82
2022/02/26 10:02:31;;;;;;;9.37;2.30;;;5.70;99.90;;;;;;4172279;28;20816;-83
2022/02/26 10:04:35;;;;;;;10.00;2.43;;;5.80;99.90;;;;;;4169035;28;20542;-83
2022/02/26 10:06:37;;;;;;;6.77;2.30;;;5.80;99.90;;;;;;4170767;28;20469;-83
2022/02/26 10:08:41;;;;;;;9.20;2.33;;;5.80;99.90;;;;;;4171313;28;20483;-83
2022/02/26 10:10:43;;;;;;;14.53;3.07;;;5.80;99.90;;;;;;4167481;28;20501;-83
2022/02/26 10:12:46;;;;;;;10.10;2.70;;;5.80;99.90;;;;;;4180050;28;20456;-84
2022/02/26 10:14:50;;;;;;;12.17;3.13;;;5.90;99.90;;;;;;4179567;28;20488;-83
2022/02/26 10:16:54;;;;;;;17.53;4.90;;;5.80;99.90;;;;;;4161832;28;20462;-83
2022/02/26 10:18:55;;;;;;;13.70;4.33;;;5.70;99.90;;;;;;4160555;28;20483;-83
2022/02/26 10:21:00;;;;;;;22.17;6.43;;;5.80;99.90;;;;;;4171612;28;20492;-83
2022/02/26 10:23:02;;;;;;;19.27;5.47;;;5.80;99.90;;;;;;4174545;28;20479;-82
2022/02/26 10:25:09;;;;;;;19.90;5.57;;;5.80;99.90;;;;;;4179952;28;20457;-84
2022/02/26 10:27:12;;;;;;;18.13;4.57;;;5.80;99.90;;;;;;4167486;28;20485;-81
2022/02/26 10:29:15;;;;;;;13.57;3.43;;;5.90;99.90;;;;;;4170613;28;20482;-83
2022/02/26 10:31:19;;;;;;;11.57;2.90;;;6.40;99.90;;;;;;4173075;28;20492;-82
2022/02/26 10:33:23;;;;;;;11.30;2.97;;;5.90;99.90;;;;;;4173608;28;20510;-81
2022/02/26 10:35:35;;;;;;;9.50;2.67;;;6.00;99.90;;;;;;4164376;28;20469;-83
2022/02/26 10:37:36;;;;;;;10.27;2.27;;;6.00;99.90;;;;;;4175256;28;20470;-82
2022/02/26 10:39:40;;;;;;;9.30;2.40;;;6.00;99.90;;;;;;4190649;28;20459;-81